sensor_id;sensor_type;location;lat;lon;timestamp;temperature;humidity
22224;DHT22;11281;52.194;21.006;2023-05-07T00:01:20;5.90;99.90
22224;DHT22;11281;52.194;21.006;2023-05-07T00:05:22;5.80;99.90
22224;DHT22;11281;52.194;21.006;2023-05-07T00:09:24;5.80;99.90
22224;DHT22;11281;52.194;21.006;2023-05-07T00:13:26;5.80;99.90
22224;DHT22;11281;52.194;21.006;2023-05-07T00:17:29;5.80;99.90
22224;DHT22;11281;52.194;21.006;2023-05-07T00:21:31;5.80;99.90
22224;DHT22;11281;52.194;21.006;2023-05-07T00:25:33;5.80;99.90
22224;DHT22;11281;52.194;21.006;2023-05-07T00:29:35;5.80;99.90
22224;DHT22;11281;52.194;21.006;2023-05-07T00:33:38;5.80;99.90
22224;DHT22;11281;52.194;21.006;2023-05-07T00:37:40;5.80;99.90
22224;DHT22;11281;52.194;21.006;2023-05-07T00:41:42;5.80;99.90
22224;DHT22;11281;52.194;21.006;2023-05-07T00:45:44;5.80;99.90
22224;DHT22;11281;52.194;21.006;2023-05-07T00:49:45;5.80;99.90
22224;DHT22;11281;52.194;21.006;2023-05-07T00:53:47;5.80;99.90
22224;DHT22;11281;52.194;21.006;2023-05-07T00:57:49;5.80;99.90
22224;DHT22;11281;52.194;21.006;2023-05-07T01:01:52;5.80;99.90
22224;DHT22;11281;52.194;21.006;2023-05-07T01:05:54;5.70;99.90
22224;DHT22;11281;52.194;21.006;2023-05-07T01:09:58;5.70;99.90
22224;DHT22;11281;52.194;21.006;2023-05-07T01:14:00;5.70;99.90
22224;DHT22;11281;52.194;21.006;2023-05-07T01:18:02;5.70;99.90
22224;DHT22;11281;52.194;21.006;2023-05-07T01:22:08;5.70;99.90
22224;DHT22;11281;52.194;21.006;2023-05-07T01:26:11;5.70;99.90
22224;DHT22;11281;52.194;21.006;2023-05-07T01:30:13;5.60;99.90
22224;DHT22;11281;52.194;21.006;2023-05-07T01:34:17;5.60;99.90
22224;DHT22;11281;52.194;21.006;2023-05-07T01:38:21;5.60;99.90
22224;DHT22;11281;52.194;21.006;2023-05-07T01:42:24;5.60;99.90
22224;DHT22;11281;52.194;21.006;2023-05-07T01:46:26;5.50;99.90
22224;DHT22;11281;52.194;21.006;2023-05-07T01:50:29;5.60;99.90
22224;DHT22;11281;52.194;21.006;2023-05-07T01:54:32;5.60;99.90
22224;DHT22;11281;52.194;21.006;2023-05-07T01:58:33;5.50;99.90
22224;DHT22;11281;52.194;21.006;2023-05-07T02:02:35;5.50;99.90
22224;DHT22;11281;52.194;21.006;2023-05-07T02:06:37;5.50;99.90
22224;DHT22;11281;52.194;21.006;2023-05-07T02:10:39;5.50;99.90
22224;DHT22;11281;52.194;21.006;2023-05-07T02:14:41;5.40;99.90
22224;DHT22;11281;52.194;21.006;2023-05-07T02:18:42;5.50;99.90
22224;DHT22;11281;52.194;21.006;2023-05-07T02:22:44;5.40;99.90
22224;DHT22;11281;52.194;21.006;2023-05-07T02:26:46;5.40;99.90
22224;DHT22;11281;52.194;21.006;2023-05-07T02:30:48;5.40;99.90
22224;DHT22;11281;52.194;21.006;2023-05-07T02:34:50;5.40;99.90
22224;DHT22;11281;52.194;21.006;2023-05-07T02:38:54;5.40;99.90
22224;DHT22;11281;52.194;21.006;2023-05-07T02:42:55;5.50;99.90
22224;DHT22;11281;52.194;21.006;2023-05-07T02:46:57;5.40;99.90
22224;DHT22;11281;52.194;21.006;2023-05-07T02:50:59;5.40;99.90
22224;DHT22;11281;52.194;21.006;2023-05-07T02:55:01;5.40;99.90
22224;DHT22;11281;52.194;21.006;2023-05-07T02:59:03;5.30;99.90
22224;DHT22;11281;52.194;21.006;2023-05-07T03:03:05;5.40;99.90
22224;DHT22;11281;52.194;21.006;2023-05-07T03:07:07;5.40;99.90
22224;DHT22;11281;52.194;21.006;2023-05-07T03:11:09;5.40;99.90
22224;DHT22;11281;52.194;21.006;2023-05-07T03:15:11;5.40;99.90
22224;DHT22;11281;52.194;21.006;2023-05-07T03:19:13;5.30;99.90
22224;DHT22;11281;52.194;21.006;2023-05-07T03:23:15;5.40;99.90
22224;DHT22;11281;52.194;21.006;2023-05-07T03:27:17;5.40;99.90
22224;DHT22;11281;52.194;21.006;2023-05-07T03:31:19;5.50;99.90
22224;DHT22;11281;52.194;21.006;2023-05-07T03:35:20;5.50;99.90
22224;DHT22;11281;52.194;21.006;2023-05-07T03:39:22;5.50;99.90
22224;DHT22;11281;52.194;21.006;2023-05-07T03:43:24;5.50;99.90
22224;DHT22;11281;52.194;21.006;2023-05-07T03:47:26;5.60;99.90
22224;DHT22;11281;52.194;21.006;2023-05-07T03:51:28;5.70;99.90
22224;DHT22;11281;52.194;21.006;2023-05-07T03:55:30;5.60;99.90
22224;DHT22;11281;52.194;21.006;2023-05-07T03:59:31;5.70;99.90
22224;DHT22;11281;52.194;21.006;2023-05-07T04:03:33;5.70;99.90
22224;DHT22;11281;52.194;21.006;2023-05-07T04:07:35;5.70;99.90
22224;DHT22;11281;52.194;21.006;2023-05-07T04:11:36;5.70;99.90
22224;DHT22;11281;52.194;21.006;2023-05-07T04:15:38;5.70;99.90
22224;DHT22;11281;52.194;21.006;2023-05-07T04:19:39;5.70;99.90
22224;DHT22;11281;52.194;21.006;2023-05-07T04:23:49;5.70;99.90
22224;DHT22;11281;52.194;21.006;2023-05-07T04:27:51;5.80;99.90
22224;DHT22;11281;52.194;21.006;2023-05-07T04:31:53;5.80;99.90
22224;DHT22;11281;52.194;21.006;2023-05-07T04:35:58;5.80;99.90
22224;DHT22;11281;52.194;21.006;2023-05-07T04:40:04;5.80;99.90
22224;DHT22;11281;52.194;21.006;2023-05-07T04:44:06;5.80;99.90
22224;DHT22;11281;52.194;21.006;2023-05-07T04:48:11;5.80;99.90
22224;DHT22;11281;52.194;21.006;2023-05-07T04:52:12;5.80;99.90
22224;DHT22;11281;52.194;21.006;2023-05-07T04:56:14;5.90;99.90
22224;DHT22;11281;52.194;21.006;2023-05-07T05:00:16;5.90;99.90
22224;DHT22;11281;52.194;21.006;2023-05-07T05:04:20;6.00;99.90
22224;DHT22;11281;52.194;21.006;2023-05-07T05:08:21;6.00;99.90
22224;DHT22;11281;52.194;21.006;2023-05-07T05:12:23;6.20;99.90
22224;DHT22;11281;52.194;21.006;2023-05-07T05:16:25;6.30;99.90
22224;DHT22;11281;52.194;21.006;2023-05-07T05:20:27;6.50;99.90
22224;DHT22;11281;52.194;21.006;2023-05-07T05:24:29;6.60;99.90
22224;DHT22;11281;52.194;21.006;2023-05-07T05:28:33;6.70;99.90
22224;DHT22;11281;52.194;21.006;2023-05-07T05:32:35;6.60;99.90
22224;DHT22;11281;52.194;21.006;2023-05-07T05:36:37;6.70;99.90
22224;DHT22;11281;52.194;21.006;2023-05-07T05:40:38;6.40;99.90
22224;DHT22;11281;52.194;21.006;2023-05-07T05:44:40;6.40;99.90
22224;DHT22;11281;52.194;21.006;2023-05-07T05:48:42;6.40;99.90
22224;DHT22;11281;52.194;21.006;2023-05-07T05:52:44;6.50;99.90
22224;DHT22;11281;52.194;21.006;2023-05-07T05:56:46;6.70;99.90
22224;DHT22;11281;52.194;21.006;2023-05-07T06:00:48;7.00;99.90
22224;DHT22;11281;52.194;21.006;2023-05-07T06:04:50;7.10;99.90
22224;DHT22;11281;52.194;21.006;2023-05-07T06:08:52;6.90;99.90
22224;DHT22;11281;52.194;21.006;2023-05-07T06:12:54;7.10;99.90
22224;DHT22;11281;52.194;21.006;2023-05-07T06:16:56;7.50;99.90
22224;DHT22;11281;52.194;21.006;2023-05-07T06:20:58;7.70;99.90
22224;DHT22;11281;52.194;21.006;2023-05-07T06:25:00;7.90;99.90
22224;DHT22;11281;52.194;21.006;2023-05-07T06:29:02;8.10;99.90
22224;DHT22;11281;52.194;21.006;2023-05-07T06:33:04;8.10;99.90
22224;DHT22;11281;52.194;21.006;2023-05-07T06:37:06;8.10;99.90
22224;DHT22;11281;52.194;21.006;2023-05-07T06:41:08;8.20;99.90
22224;DHT22;11281;52.194;21.006;2023-05-07T06:45:10;8.70;99.90
22224;DHT22;11281;52.194;21.006;2023-05-07T06:49:13;8.50;99.90
22224;DHT22;11281;52.194;21.006;2023-05-07T06:53:14;8.60;99.90
22224;DHT22;11281;52.194;21.006;2023-05-07T06:57:16;8.90;99.90
22224;DHT22;11281;52.194;21.006;2023-05-07T07:01:17;8.80;99.90
22224;DHT22;11281;52.194;21.006;2023-05-07T07:05:19;9.20;99.90
22224;DHT22;11281;52.194;21.006;2023-05-07T07:09:21;9.00;99.90
22224;DHT22;11281;52.194;21.006;2023-05-07T07:13:23;8.70;99.90
22224;DHT22;11281;52.194;21.006;2023-05-07T07:17:24;8.70;99.90
22224;DHT22;11281;52.194;21.006;2023-05-07T07:21:26;9.10;99.90
22224;DHT22;11281;52.194;21.006;2023-05-07T07:25:28;9.20;99.90
22224;DHT22;11281;52.194;21.006;2023-05-07T07:29:30;9.50;99.90
22224;DHT22;11281;52.194;21.006;2023-05-07T07:33:32;9.30;99.90
22224;DHT22;11281;52.194;21.006;2023-05-07T07:37:33;9.20;99.90
22224;DHT22;11281;52.194;21.006;2023-05-07T07:41:35;9.80;99.90
22224;DHT22;11281;52.194;21.006;2023-05-07T07:45:37;9.60;99.90
22224;DHT22;11281;52.194;21.006;2023-05-07T07:49:38;9.60;99.90
22224;DHT22;11281;52.194;21.006;2023-05-07T07:53:40;10.40;99.90
22224;DHT22;11281;52.194;21.006;2023-05-07T07:57:42;10.10;99.90
22224;DHT22;11281;52.194;21.006;2023-05-07T08:01:44;10.00;99.90
22224;DHT22;11281;52.194;21.006;2023-05-07T08:05:46;10.40;99.90
22224;DHT22;11281;52.194;21.006;2023-05-07T08:09:48;9.90;99.90
22224;DHT22;11281;52.194;21.006;2023-05-07T08:13:50;10.10;99.90
22224;DHT22;11281;52.194;21.006;2023-05-07T08:17:52;10.20;99.90
22224;DHT22;11281;52.194;21.006;2023-05-07T08:21:54;10.30;99.90
22224;DHT22;11281;52.194;21.006;2023-05-07T08:25:56;10.60;99.90
22224;DHT22;11281;52.194;21.006;2023-05-07T08:29:57;10.20;99.90
22224;DHT22;11281;52.194;21.006;2023-05-07T08:33:59;10.60;99.90
22224;DHT22;11281;52.194;21.006;2023-05-07T08:38:01;11.00;99.90
22224;DHT22;11281;52.194;21.006;2023-05-07T08:42:04;11.30;99.90
22224;DHT22;11281;52.194;21.006;2023-05-07T08:46:08;11.20;99.90
22224;DHT22;11281;52.194;21.006;2023-05-07T08:50:11;11.10;99.90
22224;DHT22;11281;52.194;21.006;2023-05-07T08:54:16;10.90;99.90
22224;DHT22;11281;52.194;21.006;2023-05-07T08:58:19;11.30;99.90
22224;DHT22;11281;52.194;21.006;2023-05-07T09:02:20;11.30;99.90
22224;DHT22;11281;52.194;21.006;2023-05-07T09:06:22;11.60;99.90
22224;DHT22;11281;52.194;21.006;2023-05-07T09:10:24;11.70;99.90
22224;DHT22;11281;52.194;21.006;2023-05-07T09:14:27;12.00;99.90
22224;DHT22;11281;52.194;21.006;2023-05-07T09:18:29;12.20;99.90
22224;DHT22;11281;52.194;21.006;2023-05-07T09:22:32;12.20;99.90
22224;DHT22;11281;52.194;21.006;2023-05-07T09:26:34;12.40;99.90
22224;DHT22;11281;52.194;21.006;2023-05-07T09:30:36;12.30;99.90
22224;DHT22;11281;52.194;21.006;2023-05-07T09:34:38;12.70;99.90
22224;DHT22;11281;52.194;21.006;2023-05-07T09:38:40;12.40;99.90
22224;DHT22;11281;52.194;21.006;2023-05-07T09:42:41;12.70;99.90
22224;DHT22;11281;52.194;21.006;2023-05-07T09:46:43;13.20;99.90
22224;DHT22;11281;52.194;21.006;2023-05-07T09:50:51;12.20;99.90
22224;DHT22;11281;52.194;21.006;2023-05-07T09:54:59;12.10;99.90
22224;DHT22;11281;52.194;21.006;2023-05-07T09:59:03;12.20;99.90
22224;DHT22;11281;52.194;21.006;2023-05-07T10:03:05;11.70;99.90
22224;DHT22;11281;52.194;21.006;2023-05-07T10:07:08;12.60;99.90
22224;DHT22;11281;52.194;21.006;2023-05-07T10:11:11;12.20;99.90
22224;DHT22;11281;52.194;21.006;2023-05-07T10:15:13;12.40;99.90
22224;DHT22;11281;52.194;21.006;2023-05-07T10:19:16;12.60;99.90
22224;DHT22;11281;52.194;21.006;2023-05-07T10:23:23;13.20;99.90
22224;DHT22;11281;52.194;21.006;2023-05-07T10:27:26;13.30;99.90
22224;DHT22;11281;52.194;21.006;2023-05-07T10:36:08;14.20;93.80
22224;DHT22;11281;52.194;21.006;2023-05-07T10:40:11;14.00;99.90
22224;DHT22;11281;52.194;21.006;2023-05-07T10:44:28;13.60;99.90
22224;DHT22;11281;52.194;21.006;2023-05-07T10:48:30;13.10;99.90
22224;DHT22;11281;52.194;21.006;2023-05-07T10:52:32;13.60;99.90
22224;DHT22;11281;52.194;21.006;2023-05-07T10:56:33;13.20;99.90
22224;DHT22;11281;52.194;21.006;2023-05-07T11:04:37;13.70;99.90
22224;DHT22;11281;52.194;21.006;2023-05-07T11:08:53;13.90;99.90
22224;DHT22;11281;52.194;21.006;2023-05-07T11:12:54;13.10;99.90
22224;DHT22;11281;52.194;21.006;2023-05-07T11:17:02;13.10;99.90
22224;DHT22;11281;52.194;21.006;2023-05-07T11:21:05;13.60;96.70
22224;DHT22;11281;52.194;21.006;2023-05-07T11:25:07;13.70;99.90
22224;DHT22;11281;52.194;21.006;2023-05-07T11:29:20;13.30;99.90
22224;DHT22;11281;52.194;21.006;2023-05-07T11:33:23;13.10;99.90
22224;DHT22;11281;52.194;21.006;2023-05-07T11:37:27;13.20;99.90
22224;DHT22;11281;52.194;21.006;2023-05-07T11:41:34;13.20;99.90
22224;DHT22;11281;52.194;21.006;2023-05-07T11:45:38;12.90;99.90
22224;DHT22;11281;52.194;21.006;2023-05-07T11:49:39;13.00;99.90
22224;DHT22;11281;52.194;21.006;2023-05-07T11:53:44;12.60;99.90
22224;DHT22;11281;52.194;21.006;2023-05-07T11:57:47;11.90;99.90
22224;DHT22;11281;52.194;21.006;2023-05-07T12:01:49;12.30;99.90
22224;DHT22;11281;52.194;21.006;2023-05-07T12:05:50;12.60;99.90
22224;DHT22;11281;52.194;21.006;2023-05-07T12:09:53;12.60;99.90
22224;DHT22;11281;52.194;21.006;2023-05-07T12:13:55;13.00;99.90
22224;DHT22;11281;52.194;21.006;2023-05-07T12:17:57;13.30;99.90
22224;DHT22;11281;52.194;21.006;2023-05-07T12:21:59;13.20;99.90
22224;DHT22;11281;52.194;21.006;2023-05-07T12:26:01;13.80;99.90
22224;DHT22;11281;52.194;21.006;2023-05-07T12:30:03;13.60;99.90
22224;DHT22;11281;52.194;21.006;2023-05-07T12:34:05;12.90;99.90
22224;DHT22;11281;52.194;21.006;2023-05-07T12:38:12;12.60;99.90
22224;DHT22;11281;52.194;21.006;2023-05-07T12:42:21;12.30;98.30
22224;DHT22;11281;52.194;21.006;2023-05-07T12:46:26;12.10;99.90
22224;DHT22;11281;52.194;21.006;2023-05-07T12:50:32;12.40;99.90
22224;DHT22;11281;52.194;21.006;2023-05-07T12:54:37;12.30;99.90
22224;DHT22;11281;52.194;21.006;2023-05-07T12:58:39;12.20;99.90
22224;DHT22;11281;52.194;21.006;2023-05-07T13:02:42;13.00;99.90
22224;DHT22;11281;52.194;21.006;2023-05-07T13:06:48;13.20;97.60
22224;DHT22;11281;52.194;21.006;2023-05-07T13:10:50;14.00;99.90
22224;DHT22;11281;52.194;21.006;2023-05-07T13:14:51;13.30;99.90
22224;DHT22;11281;52.194;21.006;2023-05-07T13:18:54;13.10;99.90
22224;DHT22;11281;52.194;21.006;2023-05-07T13:22:55;12.60;99.90
22224;DHT22;11281;52.194;21.006;2023-05-07T13:26:57;12.10;99.90
22224;DHT22;11281;52.194;21.006;2023-05-07T13:30:58;12.50;99.90
22224;DHT22;11281;52.194;21.006;2023-05-07T13:35:00;13.10;99.90
22224;DHT22;11281;52.194;21.006;2023-05-07T13:39:03;12.90;97.10
22224;DHT22;11281;52.194;21.006;2023-05-07T13:43:06;13.60;99.90
22224;DHT22;11281;52.194;21.006;2023-05-07T13:47:07;14.00;97.30
22224;DHT22;11281;52.194;21.006;2023-05-07T13:51:09;13.80;99.90
22224;DHT22;11281;52.194;21.006;2023-05-07T13:55:11;13.80;96.30
22224;DHT22;11281;52.194;21.006;2023-05-07T13:59:13;13.60;94.30
22224;DHT22;11281;52.194;21.006;2023-05-07T14:03:15;13.60;94.20
22224;DHT22;11281;52.194;21.006;2023-05-07T14:07:18;13.00;99.90
22224;DHT22;11281;52.194;21.006;2023-05-07T14:11:20;12.80;99.30
22224;DHT22;11281;52.194;21.006;2023-05-07T14:15:22;13.00;95.60
22224;DHT22;11281;52.194;21.006;2023-05-07T14:19:24;13.20;96.80
22224;DHT22;11281;52.194;21.006;2023-05-07T14:23:25;13.10;93.70
22224;DHT22;11281;52.194;21.006;2023-05-07T14:27:27;13.20;96.00
22224;DHT22;11281;52.194;21.006;2023-05-07T14:31:29;13.40;94.00
22224;DHT22;11281;52.194;21.006;2023-05-07T14:35:31;13.40;95.10
22224;DHT22;11281;52.194;21.006;2023-05-07T14:39:32;13.50;94.10
22224;DHT22;11281;52.194;21.006;2023-05-07T14:43:34;13.90;94.50
22224;DHT22;11281;52.194;21.006;2023-05-07T14:47:36;14.00;93.40
22224;DHT22;11281;52.194;21.006;2023-05-07T14:51:37;13.90;92.10
22224;DHT22;11281;52.194;21.006;2023-05-07T14:55:39;13.80;91.10
22224;DHT22;11281;52.194;21.006;2023-05-07T14:59:41;13.90;90.00
22224;DHT22;11281;52.194;21.006;2023-05-07T15:03:43;13.30;86.80
22224;DHT22;11281;52.194;21.006;2023-05-07T15:07:45;12.90;96.20
22224;DHT22;11281;52.194;21.006;2023-05-07T15:11:46;13.60;93.80
22224;DHT22;11281;52.194;21.006;2023-05-07T15:15:48;13.90;91.00
22224;DHT22;11281;52.194;21.006;2023-05-07T15:19:50;13.90;94.60
22224;DHT22;11281;52.194;21.006;2023-05-07T15:23:52;13.70;93.00
22224;DHT22;11281;52.194;21.006;2023-05-07T15:27:53;13.50;97.20
22224;DHT22;11281;52.194;21.006;2023-05-07T15:31:55;13.00;95.00
22224;DHT22;11281;52.194;21.006;2023-05-07T15:35:56;13.00;97.80
22224;DHT22;11281;52.194;21.006;2023-05-07T15:40:00;12.90;97.90
22224;DHT22;11281;52.194;21.006;2023-05-07T15:44:04;13.10;96.00
22224;DHT22;11281;52.194;21.006;2023-05-07T15:48:06;13.00;99.90
22224;DHT22;11281;52.194;21.006;2023-05-07T15:52:08;13.00;96.10
22224;DHT22;11281;52.194;21.006;2023-05-07T15:56:15;12.90;99.90
22224;DHT22;11281;52.194;21.006;2023-05-07T16:00:17;12.70;99.90
22224;DHT22;11281;52.194;21.006;2023-05-07T16:04:19;12.70;99.90
22224;DHT22;11281;52.194;21.006;2023-05-07T16:08:21;12.50;99.90
22224;DHT22;11281;52.194;21.006;2023-05-07T16:12:22;12.60;99.90
22224;DHT22;11281;52.194;21.006;2023-05-07T16:16:24;12.60;99.30
22224;DHT22;11281;52.194;21.006;2023-05-07T16:20:29;12.50;99.90
22224;DHT22;11281;52.194;21.006;2023-05-07T16:24:31;12.50;99.90
22224;DHT22;11281;52.194;21.006;2023-05-07T16:28:33;12.30;99.90
22224;DHT22;11281;52.194;21.006;2023-05-07T16:32:34;12.30;99.90
22224;DHT22;11281;52.194;21.006;2023-05-07T16:36:36;12.20;99.90
22224;DHT22;11281;52.194;21.006;2023-05-07T16:40:38;12.30;99.90
22224;DHT22;11281;52.194;21.006;2023-05-07T16:44:40;12.30;99.90
22224;DHT22;11281;52.194;21.006;2023-05-07T16:48:42;12.20;99.90
22224;DHT22;11281;52.194;21.006;2023-05-07T16:52:43;12.10;99.90
22224;DHT22;11281;52.194;21.006;2023-05-07T16:56:45;11.80;99.90
22224;DHT22;11281;52.194;21.006;2023-05-07T17:00:48;11.70;99.90
22224;DHT22;11281;52.194;21.006;2023-05-07T17:04:49;11.60;99.90
22224;DHT22;11281;52.194;21.006;2023-05-07T17:08:51;11.40;99.90
22224;DHT22;11281;52.194;21.006;2023-05-07T17:12:53;11.40;99.90
22224;DHT22;11281;52.194;21.006;2023-05-07T17:16:56;11.00;99.90
22224;DHT22;11281;52.194;21.006;2023-05-07T17:20:58;10.90;99.90
22224;DHT22;11281;52.194;21.006;2023-05-07T17:24:59;10.50;99.90
22224;DHT22;11281;52.194;21.006;2023-05-07T17:29:04;10.10;99.90
22224;DHT22;11281;52.194;21.006;2023-05-07T17:33:06;10.10;99.90
22224;DHT22;11281;52.194;21.006;2023-05-07T17:37:07;9.80;99.90
22224;DHT22;11281;52.194;21.006;2023-05-07T17:41:09;9.60;99.90
22224;DHT22;11281;52.194;21.006;2023-05-07T17:45:11;9.40;99.90
22224;DHT22;11281;52.194;21.006;2023-05-07T17:49:14;9.20;99.90
22224;DHT22;11281;52.194;21.006;2023-05-07T17:53:16;8.90;99.90
22224;DHT22;11281;52.194;21.006;2023-05-07T17:57:18;8.70;99.90
22224;DHT22;11281;52.194;21.006;2023-05-07T18:01:20;8.60;99.90
22224;DHT22;11281;52.194;21.006;2023-05-07T18:05:22;8.30;99.90
22224;DHT22;11281;52.194;21.006;2023-05-07T18:09:24;8.10;99.90
22224;DHT22;11281;52.194;21.006;2023-05-07T18:13:26;7.90;99.90
22224;DHT22;11281;52.194;21.006;2023-05-07T18:17:28;7.60;99.90
22224;DHT22;11281;52.194;21.006;2023-05-07T18:21:30;7.40;99.90
22224;DHT22;11281;52.194;21.006;2023-05-07T18:25:32;7.20;99.90
22224;DHT22;11281;52.194;21.006;2023-05-07T18:29:33;7.00;99.90
22224;DHT22;11281;52.194;21.006;2023-05-07T18:33:35;6.90;99.90
22224;DHT22;11281;52.194;21.006;2023-05-07T18:37:37;6.70;99.90
22224;DHT22;11281;52.194;21.006;2023-05-07T18:41:38;6.60;99.90
22224;DHT22;11281;52.194;21.006;2023-05-07T18:45:40;6.50;99.90
22224;DHT22;11281;52.194;21.006;2023-05-07T18:49:42;6.40;99.90
22224;DHT22;11281;52.194;21.006;2023-05-07T18:53:44;6.20;99.90
22224;DHT22;11281;52.194;21.006;2023-05-07T18:57:46;6.20;99.90
22224;DHT22;11281;52.194;21.006;2023-05-07T19:01:48;6.10;99.90
22224;DHT22;11281;52.194;21.006;2023-05-07T19:05:51;5.90;99.90
22224;DHT22;11281;52.194;21.006;2023-05-07T19:09:53;5.80;99.90
22224;DHT22;11281;52.194;21.006;2023-05-07T19:13:55;5.70;99.90
22224;DHT22;11281;52.194;21.006;2023-05-07T19:17:57;5.80;99.90
22224;DHT22;11281;52.194;21.006;2023-05-07T19:21:58;5.90;99.90
22224;DHT22;11281;52.194;21.006;2023-05-07T19:26:01;5.80;99.90
22224;DHT22;11281;52.194;21.006;2023-05-07T19:30:05;5.90;99.90
22224;DHT22;11281;52.194;21.006;2023-05-07T19:34:08;5.70;99.90
22224;DHT22;11281;52.194;21.006;2023-05-07T19:38:09;5.60;99.90
22224;DHT22;11281;52.194;21.006;2023-05-07T19:42:11;5.40;99.90
22224;DHT22;11281;52.194;21.006;2023-05-07T19:46:14;5.40;99.90
22224;DHT22;11281;52.194;21.006;2023-05-07T19:50:17;5.30;99.90
22224;DHT22;11281;52.194;21.006;2023-05-07T19:54:18;5.20;99.90
22224;DHT22;11281;52.194;21.006;2023-05-07T19:58:20;5.20;99.90
22224;DHT22;11281;52.194;21.006;2023-05-07T20:02:22;5.10;99.90
22224;DHT22;11281;52.194;21.006;2023-05-07T20:06:24;5.00;99.90
22224;DHT22;11281;52.194;21.006;2023-05-07T20:10:25;4.90;99.90
22224;DHT22;11281;52.194;21.006;2023-05-07T20:14:27;4.80;99.90
22224;DHT22;11281;52.194;21.006;2023-05-07T20:18:29;4.70;99.90
22224;DHT22;11281;52.194;21.006;2023-05-07T20:22:31;4.60;99.90
22224;DHT22;11281;52.194;21.006;2023-05-07T20:26:32;4.60;99.90
22224;DHT22;11281;52.194;21.006;2023-05-07T20:30:34;4.50;99.90
22224;DHT22;11281;52.194;21.006;2023-05-07T20:34:36;4.40;99.90
22224;DHT22;11281;52.194;21.006;2023-05-07T20:38:37;4.40;99.90
22224;DHT22;11281;52.194;21.006;2023-05-07T20:42:38;4.30;99.90
22224;DHT22;11281;52.194;21.006;2023-05-07T20:46:40;4.30;99.90
22224;DHT22;11281;52.194;21.006;2023-05-07T20:50:42;4.20;99.90
22224;DHT22;11281;52.194;21.006;2023-05-07T20:54:44;4.20;99.90
22224;DHT22;11281;52.194;21.006;2023-05-07T20:58:47;4.20;99.90
22224;DHT22;11281;52.194;21.006;2023-05-07T21:02:49;4.10;99.90
22224;DHT22;11281;52.194;21.006;2023-05-07T21:06:51;4.10;99.90
22224;DHT22;11281;52.194;21.006;2023-05-07T21:10:54;4.00;99.90
22224;DHT22;11281;52.194;21.006;2023-05-07T21:14:56;3.90;99.90
22224;DHT22;11281;52.194;21.006;2023-05-07T21:18:58;3.80;99.90
22224;DHT22;11281;52.194;21.006;2023-05-07T21:22:59;3.80;99.90
22224;DHT22;11281;52.194;21.006;2023-05-07T21:27:01;3.80;99.90
22224;DHT22;11281;52.194;21.006;2023-05-07T21:31:02;3.70;99.90
22224;DHT22;11281;52.194;21.006;2023-05-07T21:35:04;3.60;99.90
22224;DHT22;11281;52.194;21.006;2023-05-07T21:39:06;3.50;99.90
22224;DHT22;11281;52.194;21.006;2023-05-07T21:43:08;3.50;99.90
22224;DHT22;11281;52.194;21.006;2023-05-07T21:47:10;3.40;99.90
22224;DHT22;11281;52.194;21.006;2023-05-07T21:51:12;3.40;99.90
22224;DHT22;11281;52.194;21.006;2023-05-07T21:55:16;3.30;99.90
22224;DHT22;11281;52.194;21.006;2023-05-07T21:59:18;3.20;99.90
22224;DHT22;11281;52.194;21.006;2023-05-07T22:03:20;3.30;99.90
22224;DHT22;11281;52.194;21.006;2023-05-07T22:07:22;3.20;99.90
22224;DHT22;11281;52.194;21.006;2023-05-07T22:11:25;3.20;99.90
22224;DHT22;11281;52.194;21.006;2023-05-07T22:15:26;3.20;99.90
22224;DHT22;11281;52.194;21.006;2023-05-07T22:19:28;3.10;99.90
22224;DHT22;11281;52.194;21.006;2023-05-07T22:23:30;3.00;99.90
22224;DHT22;11281;52.194;21.006;2023-05-07T22:27:32;3.00;99.90
22224;DHT22;11281;52.194;21.006;2023-05-07T22:31:34;3.00;99.90
22224;DHT22;11281;52.194;21.006;2023-05-07T22:35:36;2.90;99.90
22224;DHT22;11281;52.194;21.006;2023-05-07T22:39:38;2.90;99.90
22224;DHT22;11281;52.194;21.006;2023-05-07T22:43:42;2.80;99.90
22224;DHT22;11281;52.194;21.006;2023-05-07T22:47:43;2.70;99.90
22224;DHT22;11281;52.194;21.006;2023-05-07T22:51:45;2.70;99.90
22224;DHT22;11281;52.194;21.006;2023-05-07T22:55:47;2.70;99.90
22224;DHT22;11281;52.194;21.006;2023-05-07T22:59:54;2.60;99.90
22224;DHT22;11281;52.194;21.006;2023-05-07T23:03:56;2.60;99.90
22224;DHT22;11281;52.194;21.006;2023-05-07T23:07:57;2.50;99.90
22224;DHT22;11281;52.194;21.006;2023-05-07T23:11:59;2.50;99.90
22224;DHT22;11281;52.194;21.006;2023-05-07T23:16:01;2.50;99.90
22224;DHT22;11281;52.194;21.006;2023-05-07T23:20:03;2.60;99.90
22224;DHT22;11281;52.194;21.006;2023-05-07T23:24:05;2.50;99.90
22224;DHT22;11281;52.194;21.006;2023-05-07T23:28:07;2.50;99.90
22224;DHT22;11281;52.194;21.006;2023-05-07T23:32:09;2.50;99.90
22224;DHT22;11281;52.194;21.006;2023-05-07T23:36:11;2.40;99.90
22224;DHT22;11281;52.194;21.006;2023-05-07T23:40:12;2.40;99.90
22224;DHT22;11281;52.194;21.006;2023-05-07T23:44:14;2.40;99.90
22224;DHT22;11281;52.194;21.006;2023-05-07T23:48:18;2.30;99.90
22224;DHT22;11281;52.194;21.006;2023-05-07T23:52:20;2.40;99.90
22224;DHT22;11281;52.194;21.006;2023-05-07T23:56:22;2.30;99.90
